^^
Datos históricos de la estación: Murcia-Puente Tocinos
Diario Informe para Agosto 31, 2019 Unidades:  Ambas    Ingés   Métrico
Diario Semanal Mensual Anual
  Máxima: Mínima: Promedio:
Temperatura: 84.4 °F /  29.1 °C 75.6 °F /  24.2 °C 79.2 °F /  26.2 °C
Punto de rocio: 70 °F /  21.1 °C 60.3 °F /  15.7 °C 66.7 °F /  19.3 °C
Humedad: 81% 46.1% 67%
Velocidad viento: 15.9mph /  25.6km/h - 7.4mph /  11.9km/h
Racha viento: 29mph /  46.7km/h - -
Viento- - Este
Presión: 30 in /  1014.8 hPa 29.8 in /  1010.4 hPa -
Precipitación: 0 in /  0.0 mm    
 
 
Tabla de datos para Agosto 31, 2019
Hora Temperatura Punto de rocio Presión Viento Velocidad viento Racha viento Humedad Intensidad lluvia(por hora) Nubes
00:04 77.5 °F /  25.3 °C 69.4 °F /  20.8 °C 29.9in /  1013.0hPa NE 4.3mph /  6.9km/h 7.6mph /  12.2km/h 76% 0in /  0.0mm
00:09 77.5 °F /  25.3 °C 69.4 °F /  20.8 °C 29.9in /  1013.0hPa NE 4.3mph /  6.9km/h 8.1mph /  13km/h 76% 0in /  0.0mm
00:14 77.5 °F /  25.3 °C 69.6 °F /  20.9 °C 29.9in /  1013.0hPa NE 4.3mph /  6.9km/h 8.1mph /  13km/h 76.3% 0in /  0.0mm
00:19 77.4 °F /  25.2 °C 69.6 °F /  20.9 °C 29.9in /  1013.1hPa NE 4.6mph /  7.4km/h 8.1mph /  13km/h 77% 0in /  0.0mm
00:24 77.4 °F /  25.2 °C 69.6 °F /  20.9 °C 29.9in /  1013.1hPa NE 5.2mph /  8.4km/h 8mph /  12.9km/h 77% 0in /  0.0mm
00:29 77.4 °F /  25.2 °C 69.6 °F /  20.9 °C 29.9in /  1013.1hPa NE 4.9mph /  7.9km/h 7mph /  11.3km/h 77% 0in /  0.0mm
00:34 77.2 °F /  25.1 °C 69.4 °F /  20.8 °C 29.9in /  1013.1hPa NNE 4.3mph /  6.9km/h 7mph /  11.3km/h 77% 0in /  0.0mm
00:39 77.2 °F /  25.1 °C 69.6 °F /  20.9 °C 29.9in /  1013.1hPa NE 4mph /  6.5km/h 7.4mph /  11.9km/h 77.6% 0in /  0.0mm
00:44 77 °F /  25 °C 69.6 °F /  20.9 °C 29.9in /  1013.1hPa NE 3.6mph /  5.8km/h 7mph /  11.3km/h 78% 0in /  0.0mm
00:49 76.8 °F /  24.9 °C 69.4 °F /  20.8 °C 29.9in /  1013.1hPa NE 3.7mph /  6km/h 6mph /  9.7km/h 78.1% 0in /  0.0mm
00:54 76.8 °F /  24.9 °C 69.8 °F /  21 °C 29.9in /  1013.1hPa NE 4mph /  6.5km/h 6mph /  9.7km/h 79% 0in /  0.0mm
00:59 76.6 °F /  24.8 °C 69.6 °F /  20.9 °C 29.9in /  1013.1hPa NE 3.7mph /  6km/h 5.8mph /  9.3km/h 79% 0in /  0.0mm
01:04 76.6 °F /  24.8 °C 69.6 °F /  20.9 °C 29.9in /  1013.1hPa NE 3.1mph /  5km/h 6mph /  9.7km/h 79% 0in /  0.0mm
01:09 76.6 °F /  24.8 °C 69.6 °F /  20.9 °C 29.9in /  1013.1hPa NNE 3.1mph /  5km/h 5.8mph /  9.3km/h 79% 0in /  0.0mm
01:14 76.6 °F /  24.8 °C 69.6 °F /  20.9 °C 29.9in /  1013.1hPa NE 3.1mph /  5km/h 6mph /  9.7km/h 79% 0in /  0.0mm
01:19 76.6 °F /  24.8 °C 69.6 °F /  20.9 °C 29.9in /  1013.1hPa NNE 2.9mph /  4.6km/h 5mph /  8km/h 79% 0in /  0.0mm
01:24 76.5 °F /  24.7 °C 69.8 °F /  21 °C 29.9in /  1013.1hPa NNE 2.4mph /  3.9km/h 5.2mph /  8.4km/h 79.8% 0in /  0.0mm
01:29 76.5 °F /  24.7 °C 69.8 °F /  21 °C 29.9in /  1013.1hPa NNE 2.5mph /  4.1km/h 5.8mph /  9.3km/h 80% 0in /  0.0mm
01:34 76.5 °F /  24.7 °C 69.8 °F /  21 °C 29.9in /  1013.2hPa North 2.9mph /  4.7km/h 6mph /  9.7km/h 80% 0in /  0.0mm
01:39 76.5 °F /  24.7 °C 69.8 °F /  21 °C 29.9in /  1013.2hPa NNO 2.6mph /  4.2km/h 5mph /  8km/h 80% 0in /  0.0mm
01:44 76.5 °F /  24.7 °C 69.8 °F /  21 °C 29.9in /  1013.2hPa NNO 2mph /  3.2km/h 4mph /  6.4km/h 80% 0in /  0.0mm
01:49 76.5 °F /  24.7 °C 69.8 °F /  21 °C 29.9in /  1013.3hPa NNO 1.9mph /  3.1km/h 4.3mph /  6.9km/h 80% 0in /  0.0mm
01:54 76.5 °F /  24.7 °C 69.8 °F /  21 °C 29.9in /  1013.3hPa North 1.8mph /  2.9km/h 5mph /  8km/h 80% 0in /  0.0mm
01:59 76.5 °F /  24.7 °C 69.8 °F /  21 °C 29.9in /  1013.3hPa NNO 1.8mph /  2.9km/h 5mph /  8km/h 79.9% 0in /  0.0mm
02:04 76.5 °F /  24.7 °C 69.4 °F /  20.8 °C 29.9in /  1013.5hPa NNO 1.8mph /  2.9km/h 2mph /  3.2km/h 79% 0in /  0.0mm
02:09 76.5 °F /  24.7 °C 69.4 °F /  20.8 °C 29.9in /  1013.5hPa NNO 1.2mph /  1.9km/h   79% 0in /  0.0mm
02:14 76.5 °F /  24.7 °C 69.4 °F /  20.8 °C 29.9in /  1013.5hPa Calm     79% 0in /  0.0mm
02:19 76.5 °F /  24.7 °C 69.4 °F /  20.8 °C 29.9in /  1013.8hPa Calm     79% 0in /  0.0mm
02:24 76.5 °F /  24.7 °C 69.4 °F /  20.8 °C 29.9in /  1013.8hPa Calm     79% 0in /  0.0mm
02:29 76.5 °F /  24.7 °C 69.4 °F /  20.8 °C 29.9in /  1013.8hPa Calm     79% 0in /  0.0mm
02:34 76.5 °F /  24.7 °C 69.4 °F /  20.8 °C 29.9in /  1013.9hPa Calm   2.4mph /  3.9km/h 79% 0in /  0.0mm
02:39 76.5 °F /  24.7 °C 69.4 °F /  20.8 °C 29.9in /  1013.9hPa Calm   2.4mph /  3.9km/h 79% 0in /  0.0mm
02:44 76.5 °F /  24.7 °C 69.4 °F /  20.8 °C 29.9in /  1013.9hPa Calm   3.1mph /  5km/h 79% 0in /  0.0mm
02:49 76.5 °F /  24.7 °C 69.4 °F /  20.8 °C 29.9in /  1014.0hPa ENE 0.6mph /  1km/h 3.6mph /  5.8km/h 79% 0in /  0.0mm
02:54 76.5 °F /  24.7 °C 69.4 °F /  20.8 °C 29.9in /  1014.0hPa ENE 1.8mph /  2.9km/h 4mph /  6.4km/h 79% 0in /  0.0mm
02:59 76.5 °F /  24.7 °C 69.4 °F /  20.8 °C 29.9in /  1014.0hPa ENE 1.2mph /  1.9km/h 2.9mph /  4.7km/h 79% 0in /  0.0mm
03:04 76.3 °F /  24.6 °C 69.3 °F /  20.7 °C 29.9in /  1014.0hPa Calm   4.6mph /  7.4km/h 79% 0in /  0.0mm
03:09 76.3 °F /  24.6 °C 69.3 °F /  20.7 °C 29.9in /  1013.8hPa NNO 0.7mph /  1.1km/h 5mph /  8km/h 79% 0in /  0.0mm
03:14 76.1 °F /  24.5 °C 69.1 °F /  20.6 °C 29.9in /  1013.8hPa NNO 2mph /  3.2km/h 5mph /  8km/h 79% 0in /  0.0mm
03:19 75.9 °F /  24.4 °C 68.9 °F /  20.5 °C 29.9in /  1013.8hPa NNE 2mph /  3.2km/h 5mph /  8km/h 79% 0in /  0.0mm
03:24 75.9 °F /  24.4 °C 68.9 °F /  20.5 °C 29.9in /  1013.5hPa NNO 2mph /  3.2km/h 5mph /  8km/h 79% 0in /  0.0mm
03:29 75.9 °F /  24.4 °C 68.9 °F /  20.5 °C 29.9in /  1013.5hPa NO 1.9mph /  3.1km/h 4.6mph /  7.4km/h 79.1% 0in /  0.0mm
03:34 75.9 °F /  24.4 °C 69.3 °F /  20.7 °C 29.9in /  1013.5hPa NO 1.8mph /  2.9km/h 5.2mph /  8.4km/h 80% 0in /  0.0mm
03:39 75.9 °F /  24.4 °C 69.3 °F /  20.7 °C 29.9in /  1013.5hPa NO 2mph /  3.2km/h 5mph /  8km/h 80% 0in /  0.0mm
03:44 75.9 °F /  24.4 °C 69.3 °F /  20.7 °C 29.9in /  1013.5hPa NO 2.4mph /  3.9km/h 5.2mph /  8.4km/h 80% 0in /  0.0mm
03:49 75.7 °F /  24.3 °C 69.3 °F /  20.7 °C 29.9in /  1013.5hPa NNO 2.5mph /  4.1km/h 5mph /  8km/h 80% 0in /  0.0mm
03:54 75.7 °F /  24.3 °C 69.1 °F /  20.6 °C 29.9in /  1013.4hPa NO 2.9mph /  4.7km/h 5mph /  8km/h 80% 0in /  0.0mm
03:59 75.7 °F /  24.3 °C 69.1 °F /  20.6 °C 29.9in /  1013.4hPa ONO 2.5mph /  4km/h 5.2mph /  8.4km/h 80% 0in /  0.0mm
04:04 75.7 °F /  24.3 °C 69.1 °F /  20.6 °C 29.9in /  1013.5hPa ONO 1.8mph /  2.9km/h 5.2mph /  8.4km/h 80% 0in /  0.0mm
04:09 75.6 °F /  24.2 °C 69.1 °F /  20.6 °C 29.9in /  1013.5hPa ONO 2.2mph /  3.5km/h 5mph /  8km/h 80% 0in /  0.0mm
04:14 75.6 °F /  24.2 °C 69.1 °F /  20.6 °C 29.9in /  1013.5hPa NO 2.9mph /  4.7km/h 5.2mph /  8.4km/h 80% 0in /  0.0mm
04:19 75.6 °F /  24.2 °C 69.1 °F /  20.6 °C 29.9in /  1013.5hPa NO 3mph /  4.8km/h 5.8mph /  9.3km/h 80% 0in /  0.0mm
04:24 75.6 °F /  24.2 °C 69.1 °F /  20.6 °C 29.9in /  1013.2hPa ONO 3.1mph /  5km/h 6mph /  9.7km/h 80.6% 0in /  0.0mm
04:29 75.6 °F /  24.2 °C 69.3 °F /  20.7 °C 29.9in /  1013.2hPa ONO 3mph /  4.9km/h 6mph /  9.7km/h 81% 0in /  0.0mm
04:34 75.6 °F /  24.2 °C 69.3 °F /  20.7 °C 29.9in /  1013.7hPa OSO 2.9mph /  4.7km/h 5mph /  8km/h 81% 0in /  0.0mm
04:39 75.7 °F /  24.3 °C 69.4 °F /  20.8 °C 29.9in /  1013.7hPa ONO 2.9mph /  4.7km/h 6.9mph /  11.1km/h 81% 0in /  0.0mm
04:44 75.7 °F /  24.3 °C 69.4 °F /  20.8 °C 29.9in /  1013.7hPa ONO 2.9mph /  4.7km/h 7mph /  11.3km/h 81% 0in /  0.0mm
04:49 75.7 °F /  24.3 °C 69.4 °F /  20.8 °C 29.9in /  1013.9hPa Oeste 3.2mph /  5.2km/h 6mph /  9.7km/h 81% 0in /  0.0mm
04:54 75.9 °F /  24.4 °C 69.6 °F /  20.9 °C 29.9in /  1013.9hPa Oeste 4mph /  6.5km/h 5mph /  8km/h 81% 0in /  0.0mm
04:59 75.9 °F /  24.4 °C 69.4 °F /  20.8 °C 29.9in /  1013.9hPa ONO 3.3mph /  5.3km/h 5mph /  8km/h 80.3% 0in /  0.0mm
05:04 76.1 °F /  24.5 °C 69.4 °F /  20.8 °C 29.9in /  1014.0hPa ONO 2mph /  3.2km/h 5.9mph /  9.5km/h 80% 0in /  0.0mm
05:09 76.3 °F /  24.6 °C 69.6 °F /  20.9 °C 29.9in /  1014.0hPa ONO 2.3mph /  3.7km/h 6.9mph /  11.1km/h 80% 0in /  0.0mm
05:14 76.3 °F /  24.6 °C 69.6 °F /  20.9 °C 29.9in /  1014.0hPa NO 2.9mph /  4.7km/h 7mph /  11.3km/h 80% 0in /  0.0mm
05:19 76.3 °F /  24.6 °C 69.4 °F /  20.8 °C 29.9in /  1014.0hPa North 3.1mph /  5km/h 7mph /  11.3km/h 79.2% 0in /  0.0mm
05:24 76.3 °F /  24.6 °C 69.3 °F /  20.7 °C 29.9in /  1013.4hPa North 3.6mph /  5.8km/h 6.2mph /  10km/h 79% 0in /  0.0mm
05:29 76.3 °F /  24.6 °C 69.3 °F /  20.7 °C 29.9in /  1013.4hPa NNE 3.6mph /  5.8km/h 6.9mph /  11.1km/h 79% 0in /  0.0mm
05:34 76.3 °F /  24.6 °C 69.3 °F /  20.7 °C 29.9in /  1013.4hPa NNE 3.6mph /  5.8km/h 8.1mph /  13km/h 79% 0in /  0.0mm
05:39 76.1 °F /  24.5 °C 69.3 °F /  20.7 °C 29.9in /  1013.0hPa NE 4.3mph /  7km/h 11.8mph /  19km/h 79% 0in /  0.0mm
05:44 75.9 °F /  24.4 °C 68.9 °F /  20.5 °C 29.9in /  1013.0hPa NE 5.9mph /  9.5km/h 12mph /  19.3km/h 79.1% 0in /  0.0mm
05:49 75.7 °F /  24.3 °C 69.1 °F /  20.6 °C 29.9in /  1013.0hPa ENE 5.9mph /  9.5km/h 10mph /  16.1km/h 80% 0in /  0.0mm
05:54 75.7 °F /  24.3 °C 69.1 °F /  20.6 °C 29.9in /  1012.6hPa ENE 5.9mph /  9.5km/h 9mph /  14.5km/h 80% 0in /  0.0mm
05:59 75.7 °F /  24.3 °C 69.1 °F /  20.6 °C 29.9in /  1012.6hPa NNE 4.8mph /  7.8km/h 6mph /  9.7km/h 80% 0in /  0.0mm
06:04 75.6 °F /  24.2 °C 69.1 °F /  20.6 °C 29.9in /  1012.9hPa NO 2.9mph /  4.7km/h 5.9mph /  9.5km/h 80% 0in /  0.0mm
06:09 75.6 °F /  24.2 °C 69.1 °F /  20.6 °C 29.9in /  1012.9hPa ONO 3mph /  4.8km/h 6.9mph /  11.1km/h 80% 0in /  0.0mm
06:14 75.6 °F /  24.2 °C 69.1 °F /  20.6 °C 29.9in /  1012.9hPa NNO 3.1mph /  5km/h 7mph /  11.3km/h 80% 0in /  0.0mm
06:19 75.6 °F /  24.2 °C 68.7 °F /  20.4 °C 29.9in /  1012.9hPa North 3mph /  4.9km/h 5.9mph /  9.5km/h 79.5% 0in /  0.0mm
06:24 75.6 °F /  24.2 °C 68.5 °F /  20.3 °C 29.9in /  1012.3hPa North 2.9mph /  4.7km/h 6.9mph /  11.1km/h 79% 0in /  0.0mm
06:29 75.6 °F /  24.2 °C 68.4 °F /  20.2 °C 29.9in /  1012.3hPa North 3.1mph /  5km/h 7.6mph /  12.2km/h 78.5% 0in /  0.0mm
06:34 75.6 °F /  24.2 °C 68.2 °F /  20.1 °C 29.9in /  1012.3hPa North 3.6mph /  5.8km/h 11.8mph /  19km/h 78% 0in /  0.0mm
06:39 75.6 °F /  24.2 °C 68.2 °F /  20.1 °C 29.9in /  1011.2hPa NNE 4.3mph /  7km/h 12mph /  19.3km/h 78% 0in /  0.0mm
06:44 75.6 °F /  24.2 °C 68.2 °F /  20.1 °C 29.9in /  1011.2hPa North 5.9mph /  9.5km/h 10mph /  16.1km/h 78% 0in /  0.0mm
06:49 75.6 °F /  24.2 °C 67.8 °F /  19.9 °C 29.9in /  1011.6hPa NO 5.5mph /  8.9km/h 9.2mph /  14.8km/h 77% 0in /  0.0mm
06:54 75.6 °F /  24.2 °C 67.8 °F /  19.9 °C 29.9in /  1011.6hPa SO 4.7mph /  7.6km/h 9mph /  14.5km/h 76.9% 0in /  0.0mm
06:59 75.7 °F /  24.3 °C 67.6 °F /  19.8 °C 29.9in /  1011.6hPa SO 3.9mph /  6.3km/h 5.2mph /  8.4km/h 76% 0in /  0.0mm
07:04 75.9 °F /  24.4 °C 67.8 °F /  19.9 °C 29.9in /  1012.8hPa SSO 2.4mph /  3.9km/h 7.4mph /  11.9km/h 76% 0in /  0.0mm
07:09 76.3 °F /  24.6 °C 67.8 °F /  19.9 °C 29.9in /  1012.8hPa SSE 3.2mph /  5.1km/h 9.2mph /  14.8km/h 75.5% 0in /  0.0mm
07:14 76.3 °F /  24.6 °C 68.2 °F /  20.1 °C 29.9in /  1012.8hPa SSE 4.7mph /  7.6km/h 12.7mph /  20.4km/h 75.7% 0in /  0.0mm
07:19 76.3 °F /  24.6 °C 68.5 °F /  20.3 °C 29.9in /  1013.3hPa SSE 5.8mph /  9.4km/h 13mph /  20.9km/h 77.2% 0in /  0.0mm
07:24 75.9 °F /  24.4 °C 68.5 °F /  20.3 °C 29.9in /  1013.3hPa SE 8.1mph /  13km/h 13mph /  20.9km/h 78% 0in /  0.0mm
07:29 75.9 °F /  24.4 °C 68.5 °F /  20.3 °C 29.9in /  1013.3hPa SSE 7.5mph /  12km/h 12mph /  19.3km/h 78% 0in /  0.0mm
07:34 75.9 °F /  24.4 °C 68.5 °F /  20.3 °C 29.9in /  1013.3hPa SE 6.2mph /  10km/h 8.5mph /  13.7km/h 78% 0in /  0.0mm
07:39 75.9 °F /  24.4 °C 68.5 °F /  20.3 °C 29.9in /  1013.1hPa ESE 5.8mph /  9.4km/h 9mph /  14.5km/h 78% 0in /  0.0mm
07:44 75.9 °F /  24.4 °C 68.5 °F /  20.3 °C 29.9in /  1013.1hPa ESE 5.2mph /  8.4km/h 6mph /  9.7km/h 77.6% 0in /  0.0mm
07:49 76.1 °F /  24.5 °C 68.2 °F /  20.1 °C 29.9in /  1013.9hPa Sur 4.7mph /  7.5km/h 6.9mph /  11.1km/h 76.5% 0in /  0.0mm
07:54 76.3 °F /  24.6 °C 68 °F /  20 °C 29.9in /  1013.9hPa SE 3.6mph /  5.8km/h 7mph /  11.3km/h 75.3% 0in /  0.0mm
07:59 76.5 °F /  24.7 °C 67.5 °F /  19.7 °C 29.9in /  1013.9hPa NE 3.6mph /  5.8km/h 6.9mph /  11.1km/h 74.1% 0in /  0.0mm
08:04 76.5 °F /  24.7 °C 67.5 °F /  19.7 °C 29.9in /  1013.9hPa North 3.6mph /  5.8km/h 7mph /  11.3km/h 73.9% 0in /  0.0mm
08:09 76.5 °F /  24.7 °C 67.6 °F /  19.8 °C 29.9in /  1013.0hPa NO 3.7mph /  6km/h 8.5mph /  13.7km/h 74% 0in /  0.0mm
08:14 76.3 °F /  24.6 °C 67.5 °F /  19.7 °C 29.9in /  1013.0hPa NO 4mph /  6.5km/h 9.2mph /  14.8km/h 74% 0in /  0.0mm
08:19 76.3 °F /  24.6 °C 67.6 °F /  19.8 °C 29.9in /  1013.0hPa NO 4.5mph /  7.2km/h 10.4mph /  16.7km/h 74.8% 0in /  0.0mm
08:24 75.9 °F /  24.4 °C 67.8 °F /  19.9 °C 29.9in /  1012.7hPa ONO 5.4mph /  8.7km/h 10mph /  16.1km/h 76% 0in /  0.0mm
08:29 75.9 °F /  24.4 °C 67.8 °F /  19.9 °C 29.9in /  1012.7hPa NE 5mph /  8.1km/h 9mph /  14.5km/h 76% 0in /  0.0mm
08:34 76.1 °F /  24.5 °C 67.8 °F /  19.9 °C 29.9in /  1013.6hPa SE 4.3mph /  6.9km/h 5mph /  8km/h 75.2% 0in /  0.0mm
08:39 76.3 °F /  24.6 °C 67.5 °F /  19.7 °C 29.9in /  1013.6hPa SSE 3.5mph /  5.6km/h 5mph /  8km/h 74.3% 0in /  0.0mm
08:44 76.5 °F /  24.7 °C 67.6 °F /  19.8 °C 29.9in /  1013.6hPa ESE 1.8mph /  2.9km/h 5mph /  8km/h 74% 0in /  0.0mm
08:49 76.6 °F /  24.8 °C 66.9 °F /  19.4 °C 29.9in /  1013.6hPa NE 2.2mph /  3.6km/h 10mph /  16.1km/h 72.2% 0in /  0.0mm
08:54 76.8 °F /  24.9 °C 67.3 °F /  19.6 °C 29.9in /  1013.2hPa NNE 3.1mph /  5km/h 10.4mph /  16.7km/h 72.4% 0in /  0.0mm
08:59 76.6 °F /  24.8 °C 67.5 °F /  19.7 °C 29.9in /  1013.2hPa NNO 3.9mph /  6.3km/h 10mph /  16.1km/h 73% 0in /  0.0mm
09:04 76.6 °F /  24.8 °C 67.3 °F /  19.6 °C 29.9in /  1013.2hPa North 5.4mph /  8.7km/h 8.5mph /  13.7km/h 73% 0in /  0.0mm
09:09 76.8 °F /  24.9 °C 67.1 °F /  19.5 °C 29.9in /  1013.2hPa NO 4.8mph /  7.7km/h 9mph /  14.5km/h 72% 0in /  0.0mm
09:14 77 °F /  25 °C 67.1 °F /  19.5 °C 29.9in /  1013.2hPa ONO 3.6mph /  5.8km/h 7mph /  11.3km/h 71.9% 0in /  0.0mm
09:19 77.2 °F /  25.1 °C 67.1 °F /  19.5 °C 29.9in /  1014.0hPa NO 3.4mph /  5.5km/h 6mph /  9.7km/h 71.2% 0in /  0.0mm
09:24 77.4 °F /  25.2 °C 66.7 °F /  19.3 °C 29.9in /  1014.0hPa SO 3.1mph /  5km/h 5mph /  8km/h 70.1% 0in /  0.0mm
09:29 77.4 °F /  25.2 °C 66.6 °F /  19.2 °C 29.9in /  1014.0hPa NNO 2.9mph /  4.6km/h 7.4mph /  11.9km/h 69.2% 0in /  0.0mm
09:34 77.5 °F /  25.3 °C 66.6 °F /  19.2 °C 29.9in /  1014.0hPa North 2.4mph /  3.9km/h 9.7mph /  15.6km/h 68.7% 0in /  0.0mm
09:39 78.1 °F /  25.6 °C 66.7 °F /  19.3 °C 29.9in /  1013.8hPa NNE 3mph /  4.9km/h 10mph /  16.1km/h 68.3% 0in /  0.0mm
09:44 78.3 °F /  25.7 °C 66.7 °F /  19.3 °C 29.9in /  1013.8hPa NE 4.3mph /  6.9km/h 14mph /  22.5km/h 67.6% 0in /  0.0mm
09:49 78.3 °F /  25.7 °C 66.9 °F /  19.4 °C 29.9in /  1013.8hPa NNE 5.4mph /  8.7km/h 14mph /  22.5km/h 68.3% 0in /  0.0mm
09:54 78.1 °F /  25.6 °C 67.5 °F /  19.7 °C 29.9in /  1013.6hPa NE 7.6mph /  12.2km/h 14mph /  22.5km/h 69.7% 0in /  0.0mm
09:59 78.1 °F /  25.6 °C 67.6 °F /  19.8 °C 29.9in /  1013.6hPa NNE 8mph /  12.8km/h 14mph /  22.5km/h 70.3% 0in /  0.0mm
10:04 78.3 °F /  25.7 °C 68 °F /  20 °C 30in /  1014.4hPa NE 8.5mph /  13.7km/h 16.8mph /  27km/h 71% 0in /  0.0mm
10:09 78.4 °F /  25.8 °C 68.2 °F /  20.1 °C 30in /  1014.4hPa NE 8.2mph /  13.2km/h 17.3mph /  27.8km/h 71% 0in /  0.0mm
10:14 78.8 °F /  26 °C 68.5 °F /  20.3 °C 30in /  1014.4hPa NNE 7.6mph /  12.2km/h 13mph /  20.9km/h 70.5% 0in /  0.0mm
10:19 79.2 °F /  26.2 °C 68.5 °F /  20.3 °C 30in /  1014.4hPa NNE 7.5mph /  12.1km/h 13mph /  20.9km/h 70.2% 0in /  0.0mm
10:24 79.3 °F /  26.3 °C 69.1 °F /  20.6 °C 29.9in /  1014.1hPa NNE 7.4mph /  11.9km/h 13mph /  20.9km/h 70.9% 0in /  0.0mm
10:29 79.3 °F /  26.3 °C 68.9 °F /  20.5 °C 29.9in /  1014.1hPa NE 7.1mph /  11.4km/h 13.8mph /  22.2km/h 70.4% 0in /  0.0mm
10:34 79.3 °F /  26.3 °C 69.1 °F /  20.6 °C 30in /  1014.5hPa NE 6.4mph /  10.3km/h 14mph /  22.5km/h 71% 0in /  0.0mm
10:39 79.2 °F /  26.2 °C 68.9 °F /  20.5 °C 30in /  1014.5hPa NNE 6.8mph /  10.9km/h 13mph /  20.9km/h 71% 0in /  0.0mm
10:44 79.3 °F /  26.3 °C 69.1 °F /  20.6 °C 30in /  1014.5hPa NNE 7.4mph /  11.9km/h 13.5mph /  21.7km/h 71% 0in /  0.0mm
10:49 79.2 °F /  26.2 °C 68.9 °F /  20.5 °C 30in /  1014.5hPa NNE 7.5mph /  12km/h 14mph /  22.5km/h 71.1% 0in /  0.0mm
10:54 79.7 °F /  26.5 °C 69.4 °F /  20.8 °C 30in /  1014.3hPa NE 7.6mph /  12.2km/h 18.4mph /  29.6km/h 71% 0in /  0.0mm
10:59 80.6 °F /  27 °C 69.8 °F /  21 °C 30in /  1014.3hPa NE 7.8mph /  12.5km/h 18mph /  29km/h 69.9% 0in /  0.0mm
11:04 81.3 °F /  27.4 °C 70 °F /  21.1 °C 30in /  1014.6hPa NE 8.1mph /  13km/h 17mph /  27.4km/h 68.4% 0in /  0.0mm
11:09 81.7 °F /  27.6 °C 70 °F /  21.1 °C 30in /  1014.6hPa NE 8.9mph /  14.4km/h 20.1mph /  32.3km/h 67.8% 0in /  0.0mm
11:14 81.5 °F /  27.5 °C 69.8 °F /  21 °C 30in /  1014.6hPa NE 10.7mph /  17.2km/h 23.7mph /  38.1km/h 67.6% 0in /  0.0mm
11:19 81 °F /  27.2 °C 69.8 °F /  21 °C 30in /  1014.6hPa NE 11.3mph /  18.2km/h 24mph /  38.6km/h 68.8% 0in /  0.0mm
11:24 80.8 °F /  27.1 °C 69.8 °F /  21 °C 30in /  1014.3hPa NE 12.5mph /  20.1km/h 22mph /  35.4km/h 69.3% 0in /  0.0mm
11:29 80.8 °F /  27.1 °C 69.4 °F /  20.8 °C 30in /  1014.3hPa ENE 11.9mph /  19.1km/h 21mph /  33.8km/h 68.4% 0in /  0.0mm
11:34 81 °F /  27.2 °C 69.1 °F /  20.6 °C 30in /  1014.8hPa NE 10.7mph /  17.2km/h 20mph /  32.2km/h 67.1% 0in /  0.0mm
11:39 81 °F /  27.2 °C 69.1 °F /  20.6 °C 30in /  1014.8hPa ENE 10.7mph /  17.2km/h 20.7mph /  33.3km/h 67.6% 0in /  0.0mm
11:44 80.6 °F /  27 °C 69.3 °F /  20.7 °C 30in /  1014.8hPa NE 10.7mph /  17.2km/h 21mph /  33.8km/h 68.7% 0in /  0.0mm
11:49 80.4 °F /  26.9 °C 69.3 °F /  20.7 °C 30in /  1014.8hPa NE 11.1mph /  17.8km/h 20.7mph /  33.3km/h 69% 0in /  0.0mm
11:54 80.4 °F /  26.9 °C 69.3 °F /  20.7 °C 30in /  1014.2hPa NE 11.8mph /  19km/h 21mph /  33.8km/h 69.1% 0in /  0.0mm
11:59 80.6 °F /  27 °C 69.1 °F /  20.6 °C 30in /  1014.2hPa NE 11.8mph /  19km/h 20.7mph /  33.3km/h 68.2% 0in /  0.0mm
12:04 80.8 °F /  27.1 °C 68.7 °F /  20.4 °C 30in /  1014.2hPa NE 11.8mph /  19km/h 23mph /  37km/h 66.7% 0in /  0.0mm
12:09 81 °F /  27.2 °C 68.2 °F /  20.1 °C 29.9in /  1014.1hPa NE 11.8mph /  19km/h 23mph /  37km/h 65.5% 0in /  0.0mm
12:14 81 °F /  27.2 °C 67.6 °F /  19.8 °C 29.9in /  1014.1hPa NE 11.8mph /  19km/h 25.6mph /  41.2km/h 64% 0in /  0.0mm
12:19 81 °F /  27.2 °C 67.3 °F /  19.6 °C 29.9in /  1014.1hPa NE 12.2mph /  19.6km/h 26mph /  41.8km/h 63.1% 0in /  0.0mm
12:24 81 °F /  27.2 °C 67.5 °F /  19.7 °C 29.9in /  1014.1hPa NE 13mph /  20.9km/h 26.5mph /  42.6km/h 63.6% 0in /  0.0mm
12:29 80.8 °F /  27.1 °C 67.6 °F /  19.8 °C 29.9in /  1014.1hPa NE 13.7mph /  22.1km/h 26.5mph /  42.6km/h 64.4% 0in /  0.0mm
12:34 80.8 °F /  27.1 °C 68 °F /  20 °C 29.9in /  1014.1hPa NE 15.2mph /  24.5km/h 22mph /  35.4km/h 65% 0in /  0.0mm
12:39 80.6 °F /  27 °C 67.6 °F /  19.8 °C 29.9in /  1014.0hPa NE 14.2mph /  22.9km/h 28.4mph /  45.7km/h 65% 0in /  0.0mm
12:44 80.4 °F /  26.9 °C 67.5 °F /  19.7 °C 29.9in /  1014.0hPa NE 12.5mph /  20.1km/h 29mph /  46.7km/h 65% 0in /  0.0mm
12:49 80.4 °F /  26.9 °C 67.1 °F /  19.5 °C 29.9in /  1014.0hPa NNE 13.7mph /  22km/h 29mph /  46.7km/h 64% 0in /  0.0mm
12:54 80.2 °F /  26.8 °C 66.9 °F /  19.4 °C 29.9in /  1014.0hPa NE 15.9mph /  25.6km/h 24.2mph /  38.9km/h 63.7% 0in /  0.0mm
12:59 80.2 °F /  26.8 °C 66.9 °F /  19.4 °C 29.9in /  1014.0hPa NE 15.5mph /  24.9km/h 27.6mph /  44.4km/h 64% 0in /  0.0mm
13:04 80.1 °F /  26.7 °C 66.9 °F /  19.4 °C 29.9in /  1014.0hPa NE 14.7mph /  23.7km/h 28mph /  45.1km/h 64% 0in /  0.0mm
13:09 80.2 °F /  26.8 °C 66.9 °F /  19.4 °C 29.9in /  1014.0hPa NE 14.1mph /  22.7km/h 24.2mph /  38.9km/h 64% 0in /  0.0mm
13:14 80.2 °F /  26.8 °C 66.9 °F /  19.4 °C 29.9in /  1014.0hPa ENE 13mph /  20.9km/h 24mph /  38.6km/h 64% 0in /  0.0mm
13:19 80.4 °F /  26.9 °C 67.1 °F /  19.5 °C 30in /  1014.6hPa ENE 12.2mph /  19.7km/h 21.3mph /  34.3km/h 64% 0in /  0.0mm
13:24 80.6 °F /  27 °C 67.3 °F /  19.6 °C 30in /  1014.6hPa NE 10.7mph /  17.2km/h 21mph /  33.8km/h 64% 0in /  0.0mm
13:29 80.8 °F /  27.1 °C 66.9 °F /  19.4 °C 30in /  1014.6hPa NE 10.7mph /  17.2km/h 19.2mph /  30.9km/h 63% 0in /  0.0mm
13:34 80.8 °F /  27.1 °C 66.6 °F /  19.2 °C 30in /  1014.6hPa NE 10.7mph /  17.2km/h 20mph /  32.2km/h 62.2% 0in /  0.0mm
13:39 81 °F /  27.2 °C 66.4 °F /  19.1 °C 30in /  1014.5hPa NE 10.9mph /  17.5km/h 20.4mph /  32.8km/h 61.5% 0in /  0.0mm
13:44 81 °F /  27.2 °C 66.9 °F /  19.4 °C 30in /  1014.5hPa NE 11.2mph /  18km/h 21.9mph /  35.2km/h 62.4% 0in /  0.0mm
13:49 81.1 °F /  27.3 °C 67.8 °F /  19.9 °C 30in /  1014.5hPa NE 11.2mph /  18km/h 22mph /  35.4km/h 63.9% 0in /  0.0mm
13:54 81.3 °F /  27.4 °C 68 °F /  20 °C 30in /  1014.2hPa NE 11.2mph /  18km/h 16mph /  25.7km/h 64% 0in /  0.0mm
13:59 81.3 °F /  27.4 °C 67.5 °F /  19.7 °C 30in /  1014.2hPa NE 10.6mph /  17.1km/h 18.5mph /  29.8km/h 63.1% 0in /  0.0mm
14:04 81.1 °F /  27.3 °C 67.8 °F /  19.9 °C 30in /  1014.2hPa NE 9.7mph /  15.6km/h 20.7mph /  33.3km/h 63.9% 0in /  0.0mm
14:09 81.1 °F /  27.3 °C 67.5 °F /  19.7 °C 29.9in /  1013.6hPa NE 10.6mph /  17.1km/h 21mph /  33.8km/h 63% 0in /  0.0mm
14:14 81.5 °F /  27.5 °C 67.8 °F /  19.9 °C 29.9in /  1013.6hPa NE 12.5mph /  20.1km/h 23mph /  37km/h 63.3% 0in /  0.0mm
14:19 81.7 °F /  27.6 °C 68 °F /  20 °C 29.9in /  1013.6hPa NE 12.9mph /  20.8km/h 23mph /  37km/h 63.2% 0in /  0.0mm
14:24 81.9 °F /  27.7 °C 67.6 °F /  19.8 °C 29.9in /  1013.1hPa NE 13.7mph /  22.1km/h 23mph /  37km/h 62.1% 0in /  0.0mm
14:29 82 °F /  27.8 °C 67.3 °F /  19.6 °C 29.9in /  1013.1hPa NE 13.6mph /  21.9km/h 23mph /  37km/h 61% 0in /  0.0mm
14:34 82.4 °F /  28 °C 67.5 °F /  19.7 °C 29.9in /  1013.3hPa NNE 13.5mph /  21.7km/h 21.3mph /  34.3km/h 60.5% 0in /  0.0mm
14:39 82.9 °F /  28.3 °C 67.1 °F /  19.5 °C 29.9in /  1013.3hPa NNE 13.2mph /  21.2km/h 21mph /  33.8km/h 59% 0in /  0.0mm
14:44 82.9 °F /  28.3 °C 66.7 °F /  19.3 °C 29.9in /  1013.3hPa NE 12.5mph /  20.1km/h 24.2mph /  38.9km/h 58.2% 0in /  0.0mm
14:49 82.9 °F /  28.3 °C 65.8 °F /  18.8 °C 29.9in /  1013.3hPa NE 13mph /  20.9km/h 25.3mph /  40.7km/h 56.3% 0in /  0.0mm
14:54 82.9 °F /  28.3 °C 65.5 °F /  18.6 °C 29.9in /  1013.0hPa NE 14mph /  22.5km/h 25mph /  40.2km/h 55.9% 0in /  0.0mm
14:59 82.8 °F /  28.2 °C 65.7 °F /  18.7 °C 29.9in /  1013.0hPa NE 13.9mph /  22.4km/h 25.3mph /  40.7km/h 56.7% 0in /  0.0mm
15:04 82.8 °F /  28.2 °C 64.6 °F /  18.1 °C 29.9in /  1013.3hPa ENE 13.7mph /  22.1km/h 23mph /  37km/h 54.4% 0in /  0.0mm
15:09 82.9 °F /  28.3 °C 64.4 °F /  18 °C 29.9in /  1013.3hPa NE 12.9mph /  20.7km/h 26.5mph /  42.6km/h 53.7% 0in /  0.0mm
15:14 83.1 °F /  28.4 °C 64.2 °F /  17.9 °C 29.9in /  1013.3hPa NE 11.4mph /  18.4km/h 26mph /  41.8km/h 53% 0in /  0.0mm
15:19 83.7 °F /  28.7 °C 63.3 °F /  17.4 °C 29.9in /  1013.3hPa NE 11.2mph /  18km/h 21.3mph /  34.3km/h 50.4% 0in /  0.0mm
15:24 83.5 °F /  28.6 °C 63.1 °F /  17.3 °C 29.9in /  1013.1hPa NE 10.7mph /  17.2km/h 22.3mph /  35.9km/h 50.5% 0in /  0.0mm
15:29 83.1 °F /  28.4 °C 63.1 °F /  17.3 °C 29.9in /  1013.1hPa NE 11.8mph /  19km/h 22mph /  35.4km/h 51% 0in /  0.0mm
15:34 82.9 °F /  28.3 °C 63.9 °F /  17.7 °C 29.9in /  1013.1hPa NE 14mph /  22.5km/h 20mph /  32.2km/h 52.4% 0in /  0.0mm
15:39 82.9 °F /  28.3 °C 63 °F /  17.2 °C 29.9in /  1013.1hPa NE 12.9mph /  20.8km/h 25.6mph /  41.2km/h 50.9% 0in /  0.0mm
15:44 82.8 °F /  28.2 °C 63.3 °F /  17.4 °C 29.9in /  1013.1hPa NE 10.7mph /  17.2km/h 26.5mph /  42.6km/h 52% 0in /  0.0mm
15:49 83.1 °F /  28.4 °C 63.7 °F /  17.6 °C 29.9in /  1013.1hPa NE 11.1mph /  17.8km/h 26mph /  41.8km/h 52% 0in /  0.0mm
15:54 83.8 °F /  28.8 °C 63.5 °F /  17.5 °C 29.9in /  1012.8hPa NE 11.8mph /  19km/h 21.9mph /  35.2km/h 50.7% 0in /  0.0mm
15:59 84.4 °F /  29.1 °C 63.1 °F /  17.3 °C 29.9in /  1012.8hPa NE 12mph /  19.3km/h 22mph /  35.4km/h 49.2% 0in /  0.0mm
16:04 84 °F /  28.9 °C 63.9 °F /  17.7 °C 29.9in /  1012.8hPa NE 12.3mph /  19.8km/h 20mph /  32.2km/h 50.8% 0in /  0.0mm
16:09 83.8 °F /  28.8 °C 64.4 °F /  18 °C 29.9in /  1012.4hPa NE 12.4mph /  19.9km/h 20mph /  32.2km/h 52% 0in /  0.0mm
16:14 83.7 °F /  28.7 °C 64.2 °F /  17.9 °C 29.9in /  1012.4hPa NE 12.5mph /  20.1km/h 25.3mph /  40.7km/h 52% 0in /  0.0mm
16:19 82.9 °F /  28.3 °C 63.1 °F /  17.3 °C 29.9in /  1012.4hPa NE 13mph /  20.9km/h 25.3mph /  40.7km/h 51.5% 0in /  0.0mm
16:24 82.6 °F /  28.1 °C 62.8 °F /  17.1 °C 29.9in /  1012.4hPa NE 14mph /  22.5km/h 25mph /  40.2km/h 51.3% 0in /  0.0mm
16:29 82.2 °F /  27.9 °C 63.1 °F /  17.3 °C 29.9in /  1012.4hPa NE 13.9mph /  22.4km/h 25mph /  40.2km/h 52.4% 0in /  0.0mm
16:34 82.2 °F /  27.9 °C 63.7 °F /  17.6 °C 29.9in /  1012.6hPa NE 13.7mph /  22.1km/h 23mph /  37km/h 53.7% 0in /  0.0mm
16:39 82.6 °F /  28.1 °C 64 °F /  17.8 °C 29.9in /  1012.6hPa NE 13.3mph /  21.4km/h 24.2mph /  38.9km/h 53.6% 0in /  0.0mm
16:44 82.6 °F /  28.1 °C 64 °F /  17.8 °C 29.9in /  1012.6hPa NE 12.5mph /  20.1km/h 24mph /  38.6km/h 53.5% 0in /  0.0mm
16:49 82.2 °F /  27.9 °C 64.2 °F /  17.9 °C 29.9in /  1012.6hPa NNE 13mph /  20.9km/h 22.3mph /  35.9km/h 54.4% 0in /  0.0mm
16:54 82.4 °F /  28 °C 64.6 °F /  18.1 °C 29.9in /  1012.4hPa NE 14mph /  22.5km/h 22mph /  35.4km/h 54.8% 0in /  0.0mm
16:59 82.6 °F /  28.1 °C 64.4 °F /  18 °C 29.9in /  1012.4hPa NE 13mph /  20.9km/h 19mph /  30.6km/h 54.2% 0in /  0.0mm
17:04 82.8 °F /  28.2 °C 64.4 °F /  18 °C 29.9in /  1012.4hPa NE 11.2mph /  18km/h 19mph /  30.6km/h 54.2% 0in /  0.0mm
17:09 82.8 °F /  28.2 °C 63.1 °F /  17.3 °C 29.9in /  1012.2hPa NE 11.7mph /  18.8km/h 26.5mph /  42.6km/h 51.7% 0in /  0.0mm
17:14 82.8 °F /  28.2 °C 62.6 °F /  17 °C 29.9in /  1012.2hPa NE 12.5mph /  20.1km/h 26mph /  41.8km/h 50.7% 0in /  0.0mm
17:19 82.8 °F /  28.2 °C 63.1 °F /  17.3 °C 29.9in /  1012.2hPa NE 12.9mph /  20.8km/h 22.3mph /  35.9km/h 51.6% 0in /  0.0mm
17:24 82.9 °F /  28.3 °C 62.8 °F /  17.1 °C 29.9in /  1011.4hPa NE 13.7mph /  22.1km/h 22.3mph /  35.9km/h 50.4% 0in /  0.0mm
17:29 83.1 °F /  28.4 °C 63.5 °F /  17.5 °C 29.9in /  1011.4hPa NE 13.2mph /  21.3km/h 22mph /  35.4km/h 51.4% 0in /  0.0mm
17:34 83.3 °F /  28.5 °C 63.7 °F /  17.6 °C 29.9in /  1011.7hPa NE 12.3mph /  19.8km/h 21mph /  33.8km/h 51.5% 0in /  0.0mm
17:39 83.3 °F /  28.5 °C 63.3 °F /  17.4 °C 29.9in /  1011.7hPa NE 11.6mph /  18.7km/h 19mph /  30.6km/h 51.2% 0in /  0.0mm
17:44 83.1 °F /  28.4 °C 63 °F /  17.2 °C 29.9in /  1011.7hPa NE 10.2mph /  16.4km/h 23mph /  37km/h 50.9% 0in /  0.0mm
17:49 82.9 °F /  28.3 °C 62.1 °F /  16.7 °C 29.9in /  1011.7hPa NE 10.6mph /  17.1km/h 23mph /  37km/h 49.3% 0in /  0.0mm
17:54 83.1 °F /  28.4 °C 61.9 °F /  16.6 °C 29.9in /  1011.5hPa NE 11.4mph /  18.4km/h 19mph /  30.6km/h 48.7% 0in /  0.0mm
17:59 83.5 °F /  28.6 °C 62.4 °F /  16.9 °C 29.9in /  1011.5hPa NE 11.1mph /  17.9km/h 19mph /  30.6km/h 49.3% 0in /  0.0mm
18:04 83.8 °F /  28.8 °C 62.6 °F /  17 °C 29.9in /  1011.5hPa NE 10.7mph /  17.2km/h 25.3mph /  40.7km/h 49.1% 0in /  0.0mm
18:09 83.8 °F /  28.8 °C 61.9 °F /  16.6 °C 29.9in /  1010.8hPa NE 11.2mph /  18.1km/h 25mph /  40.2km/h 47.6% 0in /  0.0mm
18:14 83.7 °F /  28.7 °C 61.7 °F /  16.5 °C 29.9in /  1010.8hPa NE 12.3mph /  19.8km/h 23mph /  37km/h 47.8% 0in /  0.0mm
18:19 83.7 °F /  28.7 °C 61.3 °F /  16.3 °C 29.9in /  1010.8hPa NE 13mph /  21km/h 24.2mph /  38.9km/h 47.1% 0in /  0.0mm
18:24 83.7 °F /  28.7 °C 62.2 °F /  16.8 °C 29.8in /  1010.4hPa NE 14.5mph /  23.3km/h 24mph /  38.6km/h 48.4% 0in /  0.0mm
18:29 83.7 °F /  28.7 °C 62.1 °F /  16.7 °C 29.8in /  1010.4hPa NNE 14.5mph /  23.3km/h 26.5mph /  42.6km/h 48.2% 0in /  0.0mm
18:34 83.1 °F /  28.4 °C 61.7 °F /  16.5 °C 29.8in /  1010.5hPa NE 14.5mph /  23.3km/h 26mph /  41.8km/h 48.5% 0in /  0.0mm
18:39 83.3 °F /  28.5 °C 61.7 °F /  16.5 °C 29.8in /  1010.5hPa NE 14.7mph /  23.7km/h 24mph /  38.6km/h 48.2% 0in /  0.0mm
18:44 83.7 °F /  28.7 °C 62.1 °F /  16.7 °C 29.8in /  1010.5hPa NE 15.2mph /  24.5km/h 23mph /  37km/h 48.4% 0in /  0.0mm
18:49 83.7 °F /  28.7 °C 61.9 °F /  16.6 °C 29.9in /  1011.4hPa NE 13.5mph /  21.7km/h 19.6mph /  31.5km/h 48.1% 0in /  0.0mm
18:54 83.7 °F /  28.7 °C 61.2 °F /  16.2 °C 29.9in /  1011.4hPa NE 10.2mph /  16.4km/h 21.9mph /  35.2km/h 47% 0in /  0.0mm
18:59 83.7 °F /  28.7 °C 61 °F /  16.1 °C 29.9in /  1011.4hPa NE 10.6mph /  17km/h 22mph /  35.4km/h 46.6% 0in /  0.0mm
19:04 83.7 °F /  28.7 °C 62.4 °F /  16.9 °C 29.9in /  1011.4hPa NE 11.2mph /  18km/h 17.5mph /  28.2km/h 49% 0in /  0.0mm
19:09 83.5 °F /  28.6 °C 62.6 °F /  17 °C 29.9in /  1010.8hPa ENE 10.7mph /  17.2km/h 19mph /  30.6km/h 49.8% 0in /  0.0mm
19:14 83.3 °F /  28.5 °C 61 °F /  16.1 °C 29.9in /  1010.8hPa NE 9.7mph /  15.6km/h 20.8mph /  33.5km/h 47.2% 0in /  0.0mm
19:19 83.1 °F /  28.4 °C 60.6 °F /  15.9 °C 29.9in /  1011.0hPa NE 10mph /  16.1km/h 21mph /  33.8km/h 46.8% 0in /  0.0mm
19:24 83.1 °F /  28.4 °C 60.3 °F /  15.7 °C 29.9in /  1011.0hPa NE 10.7mph /  17.2km/h 20mph /  32.2km/h 46.1% 0in /  0.0mm
19:29 83.1 °F /  28.4 °C 60.8 °F /  16 °C 29.9in /  1011.0hPa NE 10.5mph /  16.9km/h 18.5mph /  29.8km/h 46.9% 0in /  0.0mm
19:34 82.9 °F /  28.3 °C 61 °F /  16.1 °C 29.9in /  1011.0hPa NE 10.2mph /  16.4km/h 19mph /  30.6km/h 47.6% 0in /  0.0mm
19:39 82.8 °F /  28.2 °C 61.3 °F /  16.3 °C 29.8in /  1010.7hPa NE 10.7mph /  17.3km/h 20.7mph /  33.3km/h 48.3% 0in /  0.0mm
19:44 82.6 °F /  28.1 °C 61.9 °F /  16.6 °C 29.8in /  1010.7hPa NE 11.8mph /  19km/h 21mph /  33.8km/h 49.7% 0in /  0.0mm
19:49 82.4 °F /  28 °C 62.2 °F /  16.8 °C 29.9in /  1011.1hPa NE 11.2mph /  18.1km/h 18mph /  29km/h 50.4% 0in /  0.0mm
19:54 82.4 °F /  28 °C 62.6 °F /  17 °C 29.9in /  1011.1hPa NE 10.2mph /  16.4km/h 16mph /  25.7km/h 51.2% 0in /  0.0mm
19:59 82.2 °F /  27.9 °C 62.8 °F /  17.1 °C 29.9in /  1011.1hPa NE 9.8mph /  15.8km/h 15.9mph /  25.6km/h 52% 0in /  0.0mm
20:04 82 °F /  27.8 °C 63 °F /  17.2 °C 29.9in /  1011.2hPa NE 9.2mph /  14.8km/h 17.3mph /  27.8km/h 52.5% 0in /  0.0mm
20:09 81.9 °F /  27.7 °C 63 °F /  17.2 °C 29.9in /  1011.2hPa NE 9.7mph /  15.6km/h 18.4mph /  29.6km/h 53% 0in /  0.0mm
20:14 81.7 °F /  27.6 °C 62.2 °F /  16.8 °C 29.9in /  1011.2hPa NE 10.7mph /  17.2km/h 18.4mph /  29.6km/h 52% 0in /  0.0mm
20:19 81.7 °F /  27.6 °C 62.2 °F /  16.8 °C 29.9in /  1011.2hPa NE 10.7mph /  17.2km/h 18mph /  29km/h 52% 0in /  0.0mm
20:24 81.7 °F /  27.6 °C 62.2 °F /  16.8 °C 29.9in /  1011.2hPa NE 10.7mph /  17.2km/h 17mph /  27.4km/h 52% 0in /  0.0mm
20:29 81.9 °F /  27.7 °C 62.4 °F /  16.9 °C 29.9in /  1011.2hPa NE 9.1mph /  14.7km/h 13mph /  20.9km/h 52% 0in /  0.0mm
20:34 81.9 °F /  27.7 °C 62.4 °F /  16.9 °C 29.9in /  1011.7hPa ENE 6.2mph /  10km/h 14.7mph /  23.7km/h 52% 0in /  0.0mm
20:39 81.7 °F /  27.6 °C 62.2 °F /  16.8 °C 29.9in /  1011.7hPa NE 6.2mph /  10km/h 15mph /  24.1km/h 52% 0in /  0.0mm
20:44 81.5 °F /  27.5 °C 62.6 °F /  17 °C 29.9in /  1011.7hPa NE 6.2mph /  10km/h 15.2mph /  24.5km/h 52.6% 0in /  0.0mm
20:49 81.3 °F /  27.4 °C 62.8 °F /  17.1 °C 29.9in /  1011.7hPa NE 7mph /  11.2km/h 15mph /  24.1km/h 53.5% 0in /  0.0mm
20:54 81.1 °F /  27.3 °C 63.1 °F /  17.3 °C 29.9in /  1011.4hPa NE 8.7mph /  14km/h 15mph /  24.1km/h 54.5% 0in /  0.0mm
20:59 81 °F /  27.2 °C 63.3 °F /  17.4 °C 29.9in /  1011.4hPa NE 8.4mph /  13.6km/h 14mph /  22.5km/h 55.1% 0in /  0.0mm
21:04 81 °F /  27.2 °C 63.7 °F /  17.6 °C 29.9in /  1011.5hPa NE 8.1mph /  13km/h 16.1mph /  25.9km/h 56% 0in /  0.0mm
21:09 80.8 °F /  27.1 °C 64.2 °F /  17.9 °C 29.9in /  1011.5hPa NE 7.8mph /  12.6km/h 16mph /  25.7km/h 57.2% 0in /  0.0mm
21:14 80.4 °F /  26.9 °C 64.8 °F /  18.2 °C 29.9in /  1011.5hPa NE 7.4mph /  11.9km/h 15mph /  24.1km/h 58.7% 0in /  0.0mm
21:19 80.2 °F /  26.8 °C 65.3 °F /  18.5 °C 29.9in /  1011.9hPa NE 7.2mph /  11.6km/h 13.8mph /  22.2km/h 60.4% 0in /  0.0mm
21:24 80.1 °F /  26.7 °C 65.8 °F /  18.8 °C 29.9in /  1011.9hPa NE 6.9mph /  11.1km/h 15mph /  24.1km/h 61.9% 0in /  0.0mm
21:29 79.9 °F /  26.6 °C 66 °F /  18.9 °C 29.9in /  1011.9hPa NE 7.8mph /  12.6km/h 15mph /  24.1km/h 62.9% 0in /  0.0mm
21:34 79.5 °F /  26.4 °C 65.8 °F /  18.8 °C 29.9in /  1012.0hPa NE 9.7mph /  15.6km/h 15mph /  24.1km/h 63% 0in /  0.0mm
21:39 79.5 °F /  26.4 °C 65.8 °F /  18.8 °C 29.9in /  1012.0hPa NE 8.9mph /  14.4km/h 16.1mph /  25.9km/h 63% 0in /  0.0mm
21:44 79.5 °F /  26.4 °C 65.8 °F /  18.8 °C 29.9in /  1012.0hPa NE 7.6mph /  12.2km/h 16.3mph /  26.2km/h 63% 0in /  0.0mm
21:49 79.5 °F /  26.4 °C 65.8 °F /  18.8 °C 29.9in /  1012.3hPa NE 8mph /  12.8km/h 16mph /  25.7km/h 63% 0in /  0.0mm
21:54 79.3 °F /  26.3 °C 65.5 °F /  18.6 °C 29.9in /  1012.3hPa NE 8.7mph /  14km/h 13mph /  20.9km/h 62.6% 0in /  0.0mm
21:59 79.3 °F /  26.3 °C 65.1 °F /  18.4 °C 29.9in /  1012.3hPa NE 7.8mph /  12.6km/h 12.3mph /  19.8km/h 62% 0in /  0.0mm
22:04 79.3 °F /  26.3 °C 65.1 °F /  18.4 °C 29.9in /  1012.6hPa NE 6.2mph /  10km/h 18.5mph /  29.8km/h 62% 0in /  0.0mm
22:09 79.3 °F /  26.3 °C 65.1 °F /  18.4 °C 29.9in /  1012.6hPa NE 7.1mph /  11.5km/h 19mph /  30.6km/h 62% 0in /  0.0mm
22:14 79.3 °F /  26.3 °C 65.1 °F /  18.4 °C 29.9in /  1012.6hPa NE 9.2mph /  14.8km/h 21.3mph /  34.3km/h 62% 0in /  0.0mm
22:19 79.3 °F /  26.3 °C 65.1 °F /  18.4 °C 29.9in /  1012.6hPa NE 9mph /  14.5km/h 21mph /  33.8km/h 61.7% 0in /  0.0mm
22:24 79.3 °F /  26.3 °C 65.1 °F /  18.4 °C 29.9in /  1012.6hPa ENE 8.7mph /  14km/h 16mph /  25.7km/h 62% 0in /  0.0mm
22:29 79.2 °F /  26.2 °C 64.9 °F /  18.3 °C 29.9in /  1012.6hPa NE 8mph /  12.8km/h 13mph /  20.9km/h 62% 0in /  0.0mm
22:34 79.2 °F /  26.2 °C 64.9 °F /  18.3 °C 29.9in /  1012.7hPa NE 6.4mph /  10.3km/h 10mph /  16.1km/h 62% 0in /  0.0mm
22:39 79 °F /  26.1 °C 64.8 °F /  18.2 °C 29.9in /  1012.7hPa NE 6.1mph /  9.8km/h 9mph /  14.5km/h 62% 0in /  0.0mm
22:44 79 °F /  26.1 °C 64.8 °F /  18.2 °C 29.9in /  1012.7hPa NE 5.4mph /  8.7km/h 8mph /  12.9km/h 62% 0in /  0.0mm
22:49 78.8 °F /  26 °C 64.8 °F /  18.2 °C 29.9in /  1012.7hPa NNE 5.2mph /  8.3km/h 7.4mph /  11.9km/h 62.2% 0in /  0.0mm
22:54 78.6 °F /  25.9 °C 64.9 °F /  18.3 °C 29.9in /  1012.7hPa NE 4.7mph /  7.6km/h 7mph /  11.3km/h 63% 0in /  0.0mm
22:59 78.4 °F /  25.8 °C 64.9 °F /  18.3 °C 29.9in /  1012.7hPa NNE 4.1mph /  6.6km/h 5.2mph /  8.4km/h 63% 0in /  0.0mm
23:04 78.4 °F /  25.8 °C 64.8 °F /  18.2 °C 29.9in /  1012.7hPa NNE 3.1mph /  5km/h 6.2mph /  10km/h 63% 0in /  0.0mm
23:09 78.3 °F /  25.7 °C 64.8 °F /  18.2 °C 29.9in /  1012.6hPa NNE 3.4mph /  5.5km/h 8.5mph /  13.7km/h 63.3% 0in /  0.0mm
23:14 78.3 °F /  25.7 °C 64.9 °F /  18.3 °C 29.9in /  1012.6hPa NE 4mph /  6.5km/h 9mph /  14.5km/h 64% 0in /  0.0mm
23:19 78.1 °F /  25.6 °C 64.9 °F /  18.3 °C 29.9in /  1012.6hPa North 4.1mph /  6.6km/h 7mph /  11.3km/h 64% 0in /  0.0mm
23:24 78.1 °F /  25.6 °C 65.3 °F /  18.5 °C 29.9in /  1012.1hPa North 4.3mph /  6.9km/h 7mph /  11.3km/h 64.7% 0in /  0.0mm
23:29 78.1 °F /  25.6 °C 65.5 °F /  18.6 °C 29.9in /  1012.1hPa NNO 4mph /  6.5km/h 6mph /  9.7km/h 65.4% 0in /  0.0mm
23:34 77.7 °F /  25.4 °C 65.5 °F /  18.6 °C 29.9in /  1012.1hPa NNO 3.6mph /  5.8km/h 6.9mph /  11.1km/h 66% 0in /  0.0mm
23:39 77.5 °F /  25.3 °C 65.8 °F /  18.8 °C 29.9in /  1011.8hPa NNO 4mph /  6.4km/h 9.7mph /  15.6km/h 67.3% 0in /  0.0mm
23:44 77.4 °F /  25.2 °C 66.2 °F /  19 °C 29.9in /  1011.8hPa NNO 4.7mph /  7.6km/h 10mph /  16.1km/h 68.5% 0in /  0.0mm
23:49 77.4 °F /  25.2 °C 66.6 °F /  19.2 °C 29.9in /  1011.9hPa NNE 4.6mph /  7.4km/h 8.5mph /  13.7km/h 69.6% 0in /  0.0mm
23:54 77.4 °F /  25.2 °C 67.1 °F /  19.5 °C 29.9in /  1011.9hPa NNE 4.3mph /  6.9km/h 9mph /  14.5km/h 70.9% 0in /  0.0mm
23:59 77.4 °F /  25.2 °C 67.5 °F /  19.7 °C 29.9in /  1011.9hPa North 4.5mph /  7.2km/h 9.2mph /  14.8km/h 71.4% 0in /  0.0mm
Murcia-Puente Tocinos, España
Compliments of Weather Underground - 3 mb

La estación de MeteoMurcia.com, publica sus datos en los siguientes proyectos:

Weather Underground PWS IMURCIAP2 Meteoclimatic www.awekas.at

W3Counter
Web Analytics